sensor_id;sensor_type;location;lat;lon;timestamp;temperature;humidity
21085;DHT22;34247;50.064;19.970;2023-06-22T00:01:10;36.50;34.00
21085;DHT22;34247;50.064;19.970;2023-06-22T00:02:44;36.50;34.00
21085;DHT22;34247;50.064;19.970;2023-06-22T00:04:17;36.50;34.60
21085;DHT22;34247;50.064;19.970;2023-06-22T00:05:51;36.40;34.50
21085;DHT22;34247;50.064;19.970;2023-06-22T00:07:25;36.40;34.10
21085;DHT22;34247;50.064;19.970;2023-06-22T00:08:58;36.40;34.10
21085;DHT22;34247;50.064;19.970;2023-06-22T00:10:31;36.40;34.20
21085;DHT22;34247;50.064;19.970;2023-06-22T00:12:05;36.40;34.20
21085;DHT22;34247;50.064;19.970;2023-06-22T00:13:40;36.30;34.20
21085;DHT22;34247;50.064;19.970;2023-06-22T00:15:14;36.30;34.40
21085;DHT22;34247;50.064;19.970;2023-06-22T00:16:47;36.30;34.50
21085;DHT22;34247;50.064;19.970;2023-06-22T00:18:20;36.30;34.60
21085;DHT22;34247;50.064;19.970;2023-06-22T00:19:54;36.30;34.80
21085;DHT22;34247;50.064;19.970;2023-06-22T00:21:27;36.30;34.80
21085;DHT22;34247;50.064;19.970;2023-06-22T00:23:00;36.20;34.40
21085;DHT22;34247;50.064;19.970;2023-06-22T00:24:33;36.20;34.70
21085;DHT22;34247;50.064;19.970;2023-06-22T00:26:07;36.20;34.90
21085;DHT22;34247;50.064;19.970;2023-06-22T00:27:40;36.20;34.90
21085;DHT22;34247;50.064;19.970;2023-06-22T00:29:15;36.20;34.90
21085;DHT22;34247;50.064;19.970;2023-06-22T00:30:51;36.20;34.80
21085;DHT22;34247;50.064;19.970;2023-06-22T00:32:25;36.20;34.80
21085;DHT22;34247;50.064;19.970;2023-06-22T00:33:59;36.10;34.80
21085;DHT22;34247;50.064;19.970;2023-06-22T00:35:33;36.10;34.80
21085;DHT22;34247;50.064;19.970;2023-06-22T00:37:07;36.10;35.50
21085;DHT22;34247;50.064;19.970;2023-06-22T00:38:41;36.10;35.00
21085;DHT22;34247;50.064;19.970;2023-06-22T00:40:15;36.10;35.00
21085;DHT22;34247;50.064;19.970;2023-06-22T00:41:48;36.10;34.90
21085;DHT22;34247;50.064;19.970;2023-06-22T00:43:22;36.10;34.90
21085;DHT22;34247;50.064;19.970;2023-06-22T00:44:55;36.10;34.90
21085;DHT22;34247;50.064;19.970;2023-06-22T00:46:29;36.10;35.00
21085;DHT22;34247;50.064;19.970;2023-06-22T00:48:06;36.10;35.00
21085;DHT22;34247;50.064;19.970;2023-06-22T00:49:44;36.10;34.90
21085;DHT22;34247;50.064;19.970;2023-06-22T00:51:22;36.00;34.90
21085;DHT22;34247;50.064;19.970;2023-06-22T00:52:57;36.10;35.60
21085;DHT22;34247;50.064;19.970;2023-06-22T00:54:33;36.10;35.00
21085;DHT22;34247;50.064;19.970;2023-06-22T00:56:07;36.10;34.90
21085;DHT22;34247;50.064;19.970;2023-06-22T00:57:40;36.00;34.60
21085;DHT22;34247;50.064;19.970;2023-06-22T00:59:14;36.00;34.70
21085;DHT22;34247;50.064;19.970;2023-06-22T01:00:49;36.00;34.70
21085;DHT22;34247;50.064;19.970;2023-06-22T01:02:31;36.00;34.80
21085;DHT22;34247;50.064;19.970;2023-06-22T01:05:22;36.00;34.70
21085;DHT22;34247;50.064;19.970;2023-06-22T01:07:19;36.00;34.80
21085;DHT22;34247;50.064;19.970;2023-06-22T01:09:26;36.00;34.60
21085;DHT22;34247;50.064;19.970;2023-06-22T01:11:14;35.90;34.80
21085;DHT22;34247;50.064;19.970;2023-06-22T01:12:56;35.80;34.80
21085;DHT22;34247;50.064;19.970;2023-06-22T01:14:45;35.80;34.80
21085;DHT22;34247;50.064;19.970;2023-06-22T01:16:31;35.80;35.00
21085;DHT22;34247;50.064;19.970;2023-06-22T01:18:09;35.80;34.80
21085;DHT22;34247;50.064;19.970;2023-06-22T01:19:44;35.70;35.10
21085;DHT22;34247;50.064;19.970;2023-06-22T01:21:22;35.60;34.90
21085;DHT22;34247;50.064;19.970;2023-06-22T01:23:21;35.60;35.10
21085;DHT22;34247;50.064;19.970;2023-06-22T01:25:26;35.60;35.20
21085;DHT22;34247;50.064;19.970;2023-06-22T01:29:05;35.60;35.40
21085;DHT22;34247;50.064;19.970;2023-06-22T01:30:42;35.60;35.50
21085;DHT22;34247;50.064;19.970;2023-06-22T01:32:19;35.60;35.50
21085;DHT22;34247;50.064;19.970;2023-06-22T01:33:56;35.60;35.50
21085;DHT22;34247;50.064;19.970;2023-06-22T01:35:35;35.60;35.50
21085;DHT22;34247;50.064;19.970;2023-06-22T01:37:11;35.60;35.40
21085;DHT22;34247;50.064;19.970;2023-06-22T01:38:49;35.60;35.40
21085;DHT22;34247;50.064;19.970;2023-06-22T01:40:25;35.60;35.30
21085;DHT22;34247;50.064;19.970;2023-06-22T01:42:03;35.60;35.40
21085;DHT22;34247;50.064;19.970;2023-06-22T01:43:39;35.70;35.30
21085;DHT22;34247;50.064;19.970;2023-06-22T01:45:16;35.70;35.40
21085;DHT22;34247;50.064;19.970;2023-06-22T01:46:52;35.70;35.30
21085;DHT22;34247;50.064;19.970;2023-06-22T01:48:26;35.70;35.30
21085;DHT22;34247;50.064;19.970;2023-06-22T01:50:00;35.70;35.30
21085;DHT22;34247;50.064;19.970;2023-06-22T01:51:37;35.70;35.20
21085;DHT22;34247;50.064;19.970;2023-06-22T01:53:13;35.70;35.20
21085;DHT22;34247;50.064;19.970;2023-06-22T01:54:47;35.70;35.20
21085;DHT22;34247;50.064;19.970;2023-06-22T01:56:21;35.70;35.10
21085;DHT22;34247;50.064;19.970;2023-06-22T01:57:54;35.70;35.20
21085;DHT22;34247;50.064;19.970;2023-06-22T02:01:39;35.80;35.20
21085;DHT22;34247;50.064;19.970;2023-06-22T02:03:23;35.80;35.10
21085;DHT22;34247;50.064;19.970;2023-06-22T02:05:06;35.80;35.10
21085;DHT22;34247;50.064;19.970;2023-06-22T02:06:43;35.80;35.10
21085;DHT22;34247;50.064;19.970;2023-06-22T02:08:29;35.80;35.00
21085;DHT22;34247;50.064;19.970;2023-06-22T02:10:09;35.80;35.00
21085;DHT22;34247;50.064;19.970;2023-06-22T02:11:45;35.90;35.00
21085;DHT22;34247;50.064;19.970;2023-06-22T02:13:21;35.80;35.00
21085;DHT22;34247;50.064;19.970;2023-06-22T02:14:54;35.80;34.90
21085;DHT22;34247;50.064;19.970;2023-06-22T02:16:31;35.80;34.90
21085;DHT22;34247;50.064;19.970;2023-06-22T02:18:05;35.80;34.90
21085;DHT22;34247;50.064;19.970;2023-06-22T02:19:41;35.80;34.90
21085;DHT22;34247;50.064;19.970;2023-06-22T02:21:14;35.80;34.90
21085;DHT22;34247;50.064;19.970;2023-06-22T02:22:48;35.80;34.90
21085;DHT22;34247;50.064;19.970;2023-06-22T02:24:21;35.80;34.90
21085;DHT22;34247;50.064;19.970;2023-06-22T02:25:54;35.80;35.00
21085;DHT22;34247;50.064;19.970;2023-06-22T02:27:28;35.80;34.90
21085;DHT22;34247;50.064;19.970;2023-06-22T02:29:01;35.80;35.00
21085;DHT22;34247;50.064;19.970;2023-06-22T02:30:35;35.80;35.00
21085;DHT22;34247;50.064;19.970;2023-06-22T02:32:08;35.80;34.90
21085;DHT22;34247;50.064;19.970;2023-06-22T02:33:41;35.80;34.90
21085;DHT22;34247;50.064;19.970;2023-06-22T02:35:18;35.80;34.80
21085;DHT22;34247;50.064;19.970;2023-06-22T02:36:51;35.80;34.80
21085;DHT22;34247;50.064;19.970;2023-06-22T02:38:25;35.80;34.80
21085;DHT22;34247;50.064;19.970;2023-06-22T02:39:58;35.80;34.80
21085;DHT22;34247;50.064;19.970;2023-06-22T02:41:31;35.80;34.70
21085;DHT22;34247;50.064;19.970;2023-06-22T02:43:04;35.90;34.80
21085;DHT22;34247;50.064;19.970;2023-06-22T02:44:38;35.90;34.80
21085;DHT22;34247;50.064;19.970;2023-06-22T02:46:11;35.90;34.70
21085;DHT22;34247;50.064;19.970;2023-06-22T02:47:46;35.90;34.70
21085;DHT22;34247;50.064;19.970;2023-06-22T02:49:19;35.80;34.70
21085;DHT22;34247;50.064;19.970;2023-06-22T02:50:52;35.90;34.80
21085;DHT22;34247;50.064;19.970;2023-06-22T02:52:26;35.90;34.80
21085;DHT22;34247;50.064;19.970;2023-06-22T02:53:59;35.80;34.80
21085;DHT22;34247;50.064;19.970;2023-06-22T02:55:33;35.80;34.80
21085;DHT22;34247;50.064;19.970;2023-06-22T02:57:06;35.80;34.80
21085;DHT22;34247;50.064;19.970;2023-06-22T02:58:40;35.80;34.90
21085;DHT22;34247;50.064;19.970;2023-06-22T03:00:14;35.80;34.80
21085;DHT22;34247;50.064;19.970;2023-06-22T03:01:47;35.80;34.80
21085;DHT22;34247;50.064;19.970;2023-06-22T03:03:20;35.80;34.80
21085;DHT22;34247;50.064;19.970;2023-06-22T03:04:54;35.80;34.90
21085;DHT22;34247;50.064;19.970;2023-06-22T03:06:27;35.80;34.90
21085;DHT22;34247;50.064;19.970;2023-06-22T03:08:00;35.80;34.90
21085;DHT22;34247;50.064;19.970;2023-06-22T03:09:33;35.80;34.90
21085;DHT22;34247;50.064;19.970;2023-06-22T03:11:06;35.80;35.00
21085;DHT22;34247;50.064;19.970;2023-06-22T03:12:41;35.80;35.00
21085;DHT22;34247;50.064;19.970;2023-06-22T03:14:15;35.80;35.10
21085;DHT22;34247;50.064;19.970;2023-06-22T03:15:48;35.80;35.10
21085;DHT22;34247;50.064;19.970;2023-06-22T03:17:22;35.80;35.10
21085;DHT22;34247;50.064;19.970;2023-06-22T03:18:55;35.80;35.10
21085;DHT22;34247;50.064;19.970;2023-06-22T03:20:28;35.80;35.10
21085;DHT22;34247;50.064;19.970;2023-06-22T03:22:02;35.80;35.10
21085;DHT22;34247;50.064;19.970;2023-06-22T03:23:35;35.80;35.10
21085;DHT22;34247;50.064;19.970;2023-06-22T03:25:09;35.70;35.10
21085;DHT22;34247;50.064;19.970;2023-06-22T03:26:43;35.70;35.20
21085;DHT22;34247;50.064;19.970;2023-06-22T03:28:16;35.70;35.10
21085;DHT22;34247;50.064;19.970;2023-06-22T03:29:49;35.70;35.10
21085;DHT22;34247;50.064;19.970;2023-06-22T03:31:23;35.70;35.10
21085;DHT22;34247;50.064;19.970;2023-06-22T03:32:56;35.70;35.10
21085;DHT22;34247;50.064;19.970;2023-06-22T03:34:29;35.70;35.10
21085;DHT22;34247;50.064;19.970;2023-06-22T03:36:02;35.70;35.10
21085;DHT22;34247;50.064;19.970;2023-06-22T03:37:36;35.70;35.20
21085;DHT22;34247;50.064;19.970;2023-06-22T03:39:09;35.70;35.00
21085;DHT22;34247;50.064;19.970;2023-06-22T03:40:43;35.70;35.10
21085;DHT22;34247;50.064;19.970;2023-06-22T03:42:16;35.70;35.00
21085;DHT22;34247;50.064;19.970;2023-06-22T03:43:51;35.70;35.10
21085;DHT22;34247;50.064;19.970;2023-06-22T03:45:24;35.70;35.10
21085;DHT22;34247;50.064;19.970;2023-06-22T03:46:57;35.70;35.10
21085;DHT22;34247;50.064;19.970;2023-06-22T03:48:30;35.70;35.10
21085;DHT22;34247;50.064;19.970;2023-06-22T03:50:04;35.70;35.10
21085;DHT22;34247;50.064;19.970;2023-06-22T03:51:38;35.70;35.00
21085;DHT22;34247;50.064;19.970;2023-06-22T03:53:11;35.70;35.10
21085;DHT22;34247;50.064;19.970;2023-06-22T03:54:44;35.70;35.10
21085;DHT22;34247;50.064;19.970;2023-06-22T03:56:18;35.70;35.10
21085;DHT22;34247;50.064;19.970;2023-06-22T03:57:51;35.70;35.10
21085;DHT22;34247;50.064;19.970;2023-06-22T03:59:24;35.70;35.00
21085;DHT22;34247;50.064;19.970;2023-06-22T04:00:58;35.70;35.10
21085;DHT22;34247;50.064;19.970;2023-06-22T04:02:32;35.70;35.00
21085;DHT22;34247;50.064;19.970;2023-06-22T04:04:08;35.70;35.00
21085;DHT22;34247;50.064;19.970;2023-06-22T04:05:42;35.70;35.00
21085;DHT22;34247;50.064;19.970;2023-06-22T04:07:16;35.70;35.00
21085;DHT22;34247;50.064;19.970;2023-06-22T04:08:49;35.70;34.90
21085;DHT22;34247;50.064;19.970;2023-06-22T04:10:23;35.70;34.90
21085;DHT22;34247;50.064;19.970;2023-06-22T04:11:56;35.70;34.90
21085;DHT22;34247;50.064;19.970;2023-06-22T04:13:29;35.80;35.00
21085;DHT22;34247;50.064;19.970;2023-06-22T04:15:03;35.80;34.90
21085;DHT22;34247;50.064;19.970;2023-06-22T04:16:38;35.80;34.90
21085;DHT22;34247;50.064;19.970;2023-06-22T04:18:12;35.70;34.80
21085;DHT22;34247;50.064;19.970;2023-06-22T04:19:45;35.70;34.90
21085;DHT22;34247;50.064;19.970;2023-06-22T04:21:19;35.70;34.80
21085;DHT22;34247;50.064;19.970;2023-06-22T04:22:53;35.70;34.90
21085;DHT22;34247;50.064;19.970;2023-06-22T04:24:26;35.70;34.90
21085;DHT22;34247;50.064;19.970;2023-06-22T04:25:59;35.70;35.00
21085;DHT22;34247;50.064;19.970;2023-06-22T04:27:33;35.70;35.00
21085;DHT22;34247;50.064;19.970;2023-06-22T04:29:09;35.70;35.00
21085;DHT22;34247;50.064;19.970;2023-06-22T04:30:45;35.70;35.30
21085;DHT22;34247;50.064;19.970;2023-06-22T04:32:19;35.70;35.00
21085;DHT22;34247;50.064;19.970;2023-06-22T04:33:52;35.70;35.00
21085;DHT22;34247;50.064;19.970;2023-06-22T04:35:26;35.70;35.10
21085;DHT22;34247;50.064;19.970;2023-06-22T04:36:59;35.70;35.00
21085;DHT22;34247;50.064;19.970;2023-06-22T04:38:32;35.80;35.10
21085;DHT22;34247;50.064;19.970;2023-06-22T04:40:07;35.80;35.10
21085;DHT22;34247;50.064;19.970;2023-06-22T04:41:43;35.80;35.10
21085;DHT22;34247;50.064;19.970;2023-06-22T04:43:17;35.80;35.10
21085;DHT22;34247;50.064;19.970;2023-06-22T04:44:50;35.80;35.10
21085;DHT22;34247;50.064;19.970;2023-06-22T04:46:24;35.80;35.00
21085;DHT22;34247;50.064;19.970;2023-06-22T04:47:58;35.90;34.80
21085;DHT22;34247;50.064;19.970;2023-06-22T04:49:32;35.90;34.80
21085;DHT22;34247;50.064;19.970;2023-06-22T04:51:07;35.90;34.90
21085;DHT22;34247;50.064;19.970;2023-06-22T04:52:40;35.90;34.90
21085;DHT22;34247;50.064;19.970;2023-06-22T04:54:13;35.90;34.80
21085;DHT22;34247;50.064;19.970;2023-06-22T04:55:46;35.90;34.50
21085;DHT22;34247;50.064;19.970;2023-06-22T04:57:19;36.00;34.40
21085;DHT22;34247;50.064;19.970;2023-06-22T04:58:53;36.10;34.40
21085;DHT22;34247;50.064;19.970;2023-06-22T05:00:26;36.10;34.40
21085;DHT22;34247;50.064;19.970;2023-06-22T05:02:01;36.20;34.20
21085;DHT22;34247;50.064;19.970;2023-06-22T05:03:34;36.20;34.00
21085;DHT22;34247;50.064;19.970;2023-06-22T05:05:08;36.30;34.30
21085;DHT22;34247;50.064;19.970;2023-06-22T05:06:41;36.30;34.20
21085;DHT22;34247;50.064;19.970;2023-06-22T05:08:14;36.30;34.00
21085;DHT22;34247;50.064;19.970;2023-06-22T05:09:47;36.40;33.90
21085;DHT22;34247;50.064;19.970;2023-06-22T05:11:20;36.40;33.90
21085;DHT22;34247;50.064;19.970;2023-06-22T05:12:53;36.50;33.90
21085;DHT22;34247;50.064;19.970;2023-06-22T05:14:27;36.50;33.90
21085;DHT22;34247;50.064;19.970;2023-06-22T05:16:00;36.60;33.70
21085;DHT22;34247;50.064;19.970;2023-06-22T05:17:35;36.70;33.60
21085;DHT22;34247;50.064;19.970;2023-06-22T05:19:10;36.80;33.60
21085;DHT22;34247;50.064;19.970;2023-06-22T05:20:43;36.80;33.40
21085;DHT22;34247;50.064;19.970;2023-06-22T05:22:17;36.90;33.20
21085;DHT22;34247;50.064;19.970;2023-06-22T05:23:51;37.00;33.30
21085;DHT22;34247;50.064;19.970;2023-06-22T05:25:26;37.00;33.30
21085;DHT22;34247;50.064;19.970;2023-06-22T05:26:59;37.10;33.00
21085;DHT22;34247;50.064;19.970;2023-06-22T05:28:32;37.10;33.30
21085;DHT22;34247;50.064;19.970;2023-06-22T05:30:07;37.10;33.00
21085;DHT22;34247;50.064;19.970;2023-06-22T05:31:42;37.20;32.90
21085;DHT22;34247;50.064;19.970;2023-06-22T05:33:15;37.30;32.90
21085;DHT22;34247;50.064;19.970;2023-06-22T05:34:49;37.30;32.80
21085;DHT22;34247;50.064;19.970;2023-06-22T05:36:22;37.40;32.60
21085;DHT22;34247;50.064;19.970;2023-06-22T05:37:56;37.50;32.50
21085;DHT22;34247;50.064;19.970;2023-06-22T05:39:29;37.60;32.50
21085;DHT22;34247;50.064;19.970;2023-06-22T05:41:03;37.70;32.30
21085;DHT22;34247;50.064;19.970;2023-06-22T05:42:38;37.80;32.30
21085;DHT22;34247;50.064;19.970;2023-06-22T05:44:11;37.80;32.50
21085;DHT22;34247;50.064;19.970;2023-06-22T05:45:44;37.90;32.50
21085;DHT22;34247;50.064;19.970;2023-06-22T05:47:17;38.00;32.40
21085;DHT22;34247;50.064;19.970;2023-06-22T05:48:51;38.00;32.10
21085;DHT22;34247;50.064;19.970;2023-06-22T05:50:24;38.10;32.00
21085;DHT22;34247;50.064;19.970;2023-06-22T05:51:59;38.20;31.80
21085;DHT22;34247;50.064;19.970;2023-06-22T05:53:32;38.30;31.80
21085;DHT22;34247;50.064;19.970;2023-06-22T05:55:06;38.40;31.60
21085;DHT22;34247;50.064;19.970;2023-06-22T05:56:41;38.50;31.40
21085;DHT22;34247;50.064;19.970;2023-06-22T05:58:14;38.60;31.30
21085;DHT22;34247;50.064;19.970;2023-06-22T05:59:47;38.60;31.10
21085;DHT22;34247;50.064;19.970;2023-06-22T06:01:21;38.70;31.20
21085;DHT22;34247;50.064;19.970;2023-06-22T06:02:55;38.90;30.80
21085;DHT22;34247;50.064;19.970;2023-06-22T06:04:29;38.90;30.60
21085;DHT22;34247;50.064;19.970;2023-06-22T06:06:02;38.90;30.60
21085;DHT22;34247;50.064;19.970;2023-06-22T06:07:35;39.00;30.40
21085;DHT22;34247;50.064;19.970;2023-06-22T06:09:09;39.10;30.60
21085;DHT22;34247;50.064;19.970;2023-06-22T06:10:42;39.20;30.50
21085;DHT22;34247;50.064;19.970;2023-06-22T06:12:16;39.20;30.40
21085;DHT22;34247;50.064;19.970;2023-06-22T06:13:50;39.30;30.20
21085;DHT22;34247;50.064;19.970;2023-06-22T06:15:23;39.40;30.10
21085;DHT22;34247;50.064;19.970;2023-06-22T06:16:57;39.50;30.00
21085;DHT22;34247;50.064;19.970;2023-06-22T06:18:30;39.50;30.40
21085;DHT22;34247;50.064;19.970;2023-06-22T06:20:04;39.50;30.20
21085;DHT22;34247;50.064;19.970;2023-06-22T06:21:39;39.50;30.10
21085;DHT22;34247;50.064;19.970;2023-06-22T06:23:12;39.50;30.10
21085;DHT22;34247;50.064;19.970;2023-06-22T06:24:45;39.50;30.00
21085;DHT22;34247;50.064;19.970;2023-06-22T06:26:18;39.60;30.00
21085;DHT22;34247;50.064;19.970;2023-06-22T06:27:52;39.60;29.90
21085;DHT22;34247;50.064;19.970;2023-06-22T06:29:29;39.60;29.80
21085;DHT22;34247;50.064;19.970;2023-06-22T06:31:02;39.70;29.80
21085;DHT22;34247;50.064;19.970;2023-06-22T06:32:35;39.70;29.90
21085;DHT22;34247;50.064;19.970;2023-06-22T06:34:09;39.70;29.70
21085;DHT22;34247;50.064;19.970;2023-06-22T06:35:43;39.70;29.70
21085;DHT22;34247;50.064;19.970;2023-06-22T06:37:17;39.80;29.80
21085;DHT22;34247;50.064;19.970;2023-06-22T06:38:53;39.90;29.70
21085;DHT22;34247;50.064;19.970;2023-06-22T06:40:26;39.80;29.70
21085;DHT22;34247;50.064;19.970;2023-06-22T06:42:02;39.90;29.70
21085;DHT22;34247;50.064;19.970;2023-06-22T06:43:38;39.90;29.70
21085;DHT22;34247;50.064;19.970;2023-06-22T06:45:12;39.90;29.70
21085;DHT22;34247;50.064;19.970;2023-06-22T06:46:46;39.90;29.70
21085;DHT22;34247;50.064;19.970;2023-06-22T06:48:20;40.00;29.70
21085;DHT22;34247;50.064;19.970;2023-06-22T06:49:52;40.00;29.80
21085;DHT22;34247;50.064;19.970;2023-06-22T06:51:26;40.00;29.70
21085;DHT22;34247;50.064;19.970;2023-06-22T06:52:59;40.10;29.80
21085;DHT22;34247;50.064;19.970;2023-06-22T06:54:32;40.10;29.70
21085;DHT22;34247;50.064;19.970;2023-06-22T06:56:05;40.20;29.60
21085;DHT22;34247;50.064;19.970;2023-06-22T06:57:40;40.20;29.50
21085;DHT22;34247;50.064;19.970;2023-06-22T06:59:14;40.30;29.30
21085;DHT22;34247;50.064;19.970;2023-06-22T07:00:47;40.40;29.40
21085;DHT22;34247;50.064;19.970;2023-06-22T07:02:20;40.30;29.20
21085;DHT22;34247;50.064;19.970;2023-06-22T07:03:53;40.30;29.30
21085;DHT22;34247;50.064;19.970;2023-06-22T07:05:26;40.30;29.30
21085;DHT22;34247;50.064;19.970;2023-06-22T07:07:01;40.30;29.30
21085;DHT22;34247;50.064;19.970;2023-06-22T07:08:35;40.30;29.40
21085;DHT22;34247;50.064;19.970;2023-06-22T07:10:10;40.40;29.50
21085;DHT22;34247;50.064;19.970;2023-06-22T07:11:43;40.40;29.70
21085;DHT22;34247;50.064;19.970;2023-06-22T07:13:16;40.40;29.70
21085;DHT22;34247;50.064;19.970;2023-06-22T07:14:49;40.40;29.60
21085;DHT22;34247;50.064;19.970;2023-06-22T07:16:24;40.50;29.50
21085;DHT22;34247;50.064;19.970;2023-06-22T07:17:58;40.50;29.50
21085;DHT22;34247;50.064;19.970;2023-06-22T07:19:33;40.50;29.40
21085;DHT22;34247;50.064;19.970;2023-06-22T07:21:07;40.60;29.40
21085;DHT22;34247;50.064;19.970;2023-06-22T07:22:43;40.60;29.40
21085;DHT22;34247;50.064;19.970;2023-06-22T07:24:18;40.70;29.40
21085;DHT22;34247;50.064;19.970;2023-06-22T07:25:51;40.70;29.30
21085;DHT22;34247;50.064;19.970;2023-06-22T07:27:24;40.80;29.50
21085;DHT22;34247;50.064;19.970;2023-06-22T07:28:59;40.80;29.40
21085;DHT22;34247;50.064;19.970;2023-06-22T07:30:33;40.90;29.10
21085;DHT22;34247;50.064;19.970;2023-06-22T07:32:08;41.00;29.10
21085;DHT22;34247;50.064;19.970;2023-06-22T07:33:42;41.10;28.90
21085;DHT22;34247;50.064;19.970;2023-06-22T07:35:16;41.20;28.70
21085;DHT22;34247;50.064;19.970;2023-06-22T07:36:50;41.30;29.40
21085;DHT22;34247;50.064;19.970;2023-06-22T07:38:24;41.40;28.50
21085;DHT22;34247;50.064;19.970;2023-06-22T07:39:57;41.50;28.40
21085;DHT22;34247;50.064;19.970;2023-06-22T07:41:31;41.70;28.30
21085;DHT22;34247;50.064;19.970;2023-06-22T07:43:05;41.80;28.60
21085;DHT22;34247;50.064;19.970;2023-06-22T07:44:41;41.90;27.80
21085;DHT22;34247;50.064;19.970;2023-06-22T07:46:15;42.10;27.60
21085;DHT22;34247;50.064;19.970;2023-06-22T07:47:50;42.10;27.70
21085;DHT22;34247;50.064;19.970;2023-06-22T07:49:23;42.20;27.30
21085;DHT22;34247;50.064;19.970;2023-06-22T07:50:57;42.40;27.20
21085;DHT22;34247;50.064;19.970;2023-06-22T07:52:31;42.50;27.30
21085;DHT22;34247;50.064;19.970;2023-06-22T07:54:05;42.50;27.40
21085;DHT22;34247;50.064;19.970;2023-06-22T07:55:39;42.60;27.40
21085;DHT22;34247;50.064;19.970;2023-06-22T07:57:13;42.70;27.30
21085;DHT22;34247;50.064;19.970;2023-06-22T07:58:47;42.90;27.10
21085;DHT22;34247;50.064;19.970;2023-06-22T08:00:20;42.90;27.00
21085;DHT22;34247;50.064;19.970;2023-06-22T08:01:55;43.00;27.00
21085;DHT22;34247;50.064;19.970;2023-06-22T08:03:28;42.90;26.60
21085;DHT22;34247;50.064;19.970;2023-06-22T08:05:01;43.00;26.40
21085;DHT22;34247;50.064;19.970;2023-06-22T08:06:52;43.00;26.00
21085;DHT22;34247;50.064;19.970;2023-06-22T08:08:26;43.00;25.80
21085;DHT22;34247;50.064;19.970;2023-06-22T08:09:59;43.10;25.80
21085;DHT22;34247;50.064;19.970;2023-06-22T08:11:32;43.10;26.00
21085;DHT22;34247;50.064;19.970;2023-06-22T08:13:08;43.10;26.00
21085;DHT22;34247;50.064;19.970;2023-06-22T08:14:42;43.10;26.10
21085;DHT22;34247;50.064;19.970;2023-06-22T08:16:16;43.10;26.30
21085;DHT22;34247;50.064;19.970;2023-06-22T08:17:49;43.00;26.30
21085;DHT22;34247;50.064;19.970;2023-06-22T08:19:25;43.00;26.30
21085;DHT22;34247;50.064;19.970;2023-06-22T08:20:59;43.00;26.30
21085;DHT22;34247;50.064;19.970;2023-06-22T08:22:35;43.00;26.30
21085;DHT22;34247;50.064;19.970;2023-06-22T08:24:08;42.90;26.30
21085;DHT22;34247;50.064;19.970;2023-06-22T08:25:44;42.90;26.30
21085;DHT22;34247;50.064;19.970;2023-06-22T08:27:18;42.90;26.00
21085;DHT22;34247;50.064;19.970;2023-06-22T08:28:51;42.80;26.40
21085;DHT22;34247;50.064;19.970;2023-06-22T08:30:24;42.80;26.50
21085;DHT22;34247;50.064;19.970;2023-06-22T08:31:57;42.80;26.30
21085;DHT22;34247;50.064;19.970;2023-06-22T08:33:31;42.70;26.00
21085;DHT22;34247;50.064;19.970;2023-06-22T08:35:09;42.70;25.80
21085;DHT22;34247;50.064;19.970;2023-06-22T08:36:42;42.70;25.60
21085;DHT22;34247;50.064;19.970;2023-06-22T08:38:15;42.70;25.70
21085;DHT22;34247;50.064;19.970;2023-06-22T08:39:49;42.70;26.00
21085;DHT22;34247;50.064;19.970;2023-06-22T08:41:22;42.70;26.20
21085;DHT22;34247;50.064;19.970;2023-06-22T08:42:55;42.70;26.20
21085;DHT22;34247;50.064;19.970;2023-06-22T08:44:31;42.70;26.30
21085;DHT22;34247;50.064;19.970;2023-06-22T08:46:08;42.70;26.20
21085;DHT22;34247;50.064;19.970;2023-06-22T08:47:42;42.60;26.30
21085;DHT22;34247;50.064;19.970;2023-06-22T08:49:15;42.50;26.30
21085;DHT22;34247;50.064;19.970;2023-06-22T08:50:49;42.50;26.40
21085;DHT22;34247;50.064;19.970;2023-06-22T08:52:24;42.30;26.40
21085;DHT22;34247;50.064;19.970;2023-06-22T08:53:57;42.30;26.40
21085;DHT22;34247;50.064;19.970;2023-06-22T08:55:31;42.20;26.30
21085;DHT22;34247;50.064;19.970;2023-06-22T08:57:10;42.10;26.20
21085;DHT22;34247;50.064;19.970;2023-06-22T08:58:44;42.10;26.30
21085;DHT22;34247;50.064;19.970;2023-06-22T09:00:20;42.00;26.40
21085;DHT22;34247;50.064;19.970;2023-06-22T09:01:58;42.00;26.50
21085;DHT22;34247;50.064;19.970;2023-06-22T09:03:31;41.90;26.60
21085;DHT22;34247;50.064;19.970;2023-06-22T09:05:05;41.90;26.60
21085;DHT22;34247;50.064;19.970;2023-06-22T09:06:43;41.80;27.30
21085;DHT22;34247;50.064;19.970;2023-06-22T09:08:17;41.80;26.90
21085;DHT22;34247;50.064;19.970;2023-06-22T09:09:51;41.80;26.90
21085;DHT22;34247;50.064;19.970;2023-06-22T09:11:25;41.70;26.90
21085;DHT22;34247;50.064;19.970;2023-06-22T09:13:01;41.70;27.00
21085;DHT22;34247;50.064;19.970;2023-06-22T09:14:35;41.60;26.90
21085;DHT22;34247;50.064;19.970;2023-06-22T09:16:11;41.60;26.70
21085;DHT22;34247;50.064;19.970;2023-06-22T09:17:44;41.50;26.70
21085;DHT22;34247;50.064;19.970;2023-06-22T09:19:18;41.50;26.70
21085;DHT22;34247;50.064;19.970;2023-06-22T09:20:52;41.50;26.80
21085;DHT22;34247;50.064;19.970;2023-06-22T09:22:29;41.50;26.80
21085;DHT22;34247;50.064;19.970;2023-06-22T09:24:03;41.50;26.80
21085;DHT22;34247;50.064;19.970;2023-06-22T09:25:49;41.50;26.70
21085;DHT22;34247;50.064;19.970;2023-06-22T09:27:23;41.60;26.80
21085;DHT22;34247;50.064;19.970;2023-06-22T09:29:00;41.50;26.80
21085;DHT22;34247;50.064;19.970;2023-06-22T09:30:34;41.50;26.80
21085;DHT22;34247;50.064;19.970;2023-06-22T09:32:07;41.40;26.60
21085;DHT22;34247;50.064;19.970;2023-06-22T09:33:46;41.40;26.70
21085;DHT22;34247;50.064;19.970;2023-06-22T09:35:19;41.30;26.80
21085;DHT22;34247;50.064;19.970;2023-06-22T09:36:56;41.30;26.80
21085;DHT22;34247;50.064;19.970;2023-06-22T09:38:29;41.30;26.90
21085;DHT22;34247;50.064;19.970;2023-06-22T09:40:02;41.20;26.80
21085;DHT22;34247;50.064;19.970;2023-06-22T09:41:43;41.20;26.80
21085;DHT22;34247;50.064;19.970;2023-06-22T09:43:18;41.20;26.90
21085;DHT22;34247;50.064;19.970;2023-06-22T09:44:53;41.20;26.80
21085;DHT22;34247;50.064;19.970;2023-06-22T09:46:30;41.20;27.00
21085;DHT22;34247;50.064;19.970;2023-06-22T09:48:04;41.20;26.90
21085;DHT22;34247;50.064;19.970;2023-06-22T09:49:41;41.10;27.40
21085;DHT22;34247;50.064;19.970;2023-06-22T09:51:26;41.00;26.90
21085;DHT22;34247;50.064;19.970;2023-06-22T09:53:02;41.00;27.10
21085;DHT22;34247;50.064;19.970;2023-06-22T09:54:39;40.90;27.10